sensor_id;sensor_type;location;lat;lon;timestamp;P1;durP1;ratioP1;P2;durP2;ratioP2
71423;SDS011;59240;51.370;-0.486;2022-10-13T00:00:55;22.73;;;5.32;;
71423;SDS011;59240;51.370;-0.486;2022-10-13T00:03:22;17.92;;;5.22;;
71423;SDS011;59240;51.370;-0.486;2022-10-13T00:05:50;18.88;;;5.15;;
71423;SDS011;59240;51.370;-0.486;2022-10-13T00:08:19;13.55;;;5.50;;
71423;SDS011;59240;51.370;-0.486;2022-10-13T00:10:48;24.75;;;6.95;;
71423;SDS011;59240;51.370;-0.486;2022-10-13T00:13:16;24.50;;;10.57;;
71423;SDS011;59240;51.370;-0.486;2022-10-13T00:15:44;29.98;;;10.43;;
71423;SDS011;59240;51.370;-0.486;2022-10-13T00:18:12;18.63;;;7.35;;
71423;SDS011;59240;51.370;-0.486;2022-10-13T00:20:43;18.48;;;7.53;;
71423;SDS011;59240;51.370;-0.486;2022-10-13T00:23:14;14.75;;;7.70;;
71423;SDS011;59240;51.370;-0.486;2022-10-13T00:25:43;11.93;;;6.85;;
71423;SDS011;59240;51.370;-0.486;2022-10-13T00:28:12;24.02;;;7.30;;
71423;SDS011;59240;51.370;-0.486;2022-10-13T00:30:39;15.20;;;6.35;;
71423;SDS011;59240;51.370;-0.486;2022-10-13T00:33:06;16.83;;;6.35;;
71423;SDS011;59240;51.370;-0.486;2022-10-13T00:35:33;15.32;;;6.38;;
71423;SDS011;59240;51.370;-0.486;2022-10-13T00:38:04;18.65;;;6.63;;
71423;SDS011;59240;51.370;-0.486;2022-10-13T00:40:31;14.55;;;5.88;;
71423;SDS011;59240;51.370;-0.486;2022-10-13T00:42:57;17.48;;;6.40;;
71423;SDS011;59240;51.370;-0.486;2022-10-13T00:45:28;12.18;;;5.95;;
71423;SDS011;59240;51.370;-0.486;2022-10-13T00:47:55;16.65;;;9.95;;
71423;SDS011;59240;51.370;-0.486;2022-10-13T00:50:29;18.90;;;9.02;;
71423;SDS011;59240;51.370;-0.486;2022-10-13T00:52:59;24.25;;;9.13;;
71423;SDS011;59240;51.370;-0.486;2022-10-13T00:55:28;15.93;;;7.85;;
71423;SDS011;59240;51.370;-0.486;2022-10-13T00:57:59;18.33;;;6.95;;
71423;SDS011;59240;51.370;-0.486;2022-10-13T01:00:31;14.88;;;7.40;;
71423;SDS011;59240;51.370;-0.486;2022-10-13T01:03:00;14.90;;;6.93;;
71423;SDS011;59240;51.370;-0.486;2022-10-13T01:05:27;24.38;;;9.07;;
71423;SDS011;59240;51.370;-0.486;2022-10-13T01:07:55;24.15;;;9.68;;
71423;SDS011;59240;51.370;-0.486;2022-10-13T01:10:33;23.52;;;9.20;;
71423;SDS011;59240;51.370;-0.486;2022-10-13T01:13:33;23.80;;;10.10;;
71423;SDS011;59240;51.370;-0.486;2022-10-13T01:16:18;26.75;;;9.88;;
71423;SDS011;59240;51.370;-0.486;2022-10-13T01:18:50;31.73;;;10.70;;
71423;SDS011;59240;51.370;-0.486;2022-10-13T01:21:28;24.40;;;9.50;;
71423;SDS011;59240;51.370;-0.486;2022-10-13T01:24:03;19.45;;;8.90;;
71423;SDS011;59240;51.370;-0.486;2022-10-13T01:34:48;26.42;;;10.20;;
71423;SDS011;59240;51.370;-0.486;2022-10-13T01:37:38;22.42;;;10.57;;
71423;SDS011;59240;51.370;-0.486;2022-10-13T01:45:54;20.98;;;10.63;;
71423;SDS011;59240;51.370;-0.486;2022-10-13T01:48:27;31.42;;;11.68;;
71423;SDS011;59240;51.370;-0.486;2022-10-13T01:50:54;31.88;;;12.75;;
71423;SDS011;59240;51.370;-0.486;2022-10-13T01:53:23;23.38;;;10.65;;
71423;SDS011;59240;51.370;-0.486;2022-10-13T01:55:52;34.00;;;13.07;;
71423;SDS011;59240;51.370;-0.486;2022-10-13T01:58:21;26.83;;;12.30;;
71423;SDS011;59240;51.370;-0.486;2022-10-13T02:03:56;37.42;;;13.27;;
71423;SDS011;59240;51.370;-0.486;2022-10-13T02:06:30;17.30;;;9.95;;
71423;SDS011;59240;51.370;-0.486;2022-10-13T02:09:09;24.38;;;11.40;;
71423;SDS011;59240;51.370;-0.486;2022-10-13T02:11:48;25.85;;;12.15;;
71423;SDS011;59240;51.370;-0.486;2022-10-13T02:14:23;31.95;;;12.60;;
71423;SDS011;59240;51.370;-0.486;2022-10-13T02:16:53;27.77;;;11.73;;
71423;SDS011;59240;51.370;-0.486;2022-10-13T02:19:21;40.45;;;13.05;;
71423;SDS011;59240;51.370;-0.486;2022-10-13T02:21:48;30.33;;;12.80;;
71423;SDS011;59240;51.370;-0.486;2022-10-13T02:24:18;37.28;;;16.58;;
71423;SDS011;59240;51.370;-0.486;2022-10-13T02:26:45;30.23;;;13.65;;
71423;SDS011;59240;51.370;-0.486;2022-10-13T02:29:14;38.78;;;14.65;;
71423;SDS011;59240;51.370;-0.486;2022-10-13T02:31:42;31.55;;;13.52;;
71423;SDS011;59240;51.370;-0.486;2022-10-13T02:34:10;19.83;;;10.77;;
71423;SDS011;59240;51.370;-0.486;2022-10-13T02:36:37;21.50;;;10.95;;
71423;SDS011;59240;51.370;-0.486;2022-10-13T02:39:08;25.38;;;11.77;;
71423;SDS011;59240;51.370;-0.486;2022-10-13T02:41:35;28.02;;;11.40;;
71423;SDS011;59240;51.370;-0.486;2022-10-13T02:44:03;15.77;;;9.68;;
71423;SDS011;59240;51.370;-0.486;2022-10-13T02:46:30;20.70;;;10.25;;
71423;SDS011;59240;51.370;-0.486;2022-10-13T02:48:57;16.40;;;9.48;;
71423;SDS011;59240;51.370;-0.486;2022-10-13T02:51:23;17.92;;;10.43;;
71423;SDS011;59240;51.370;-0.486;2022-10-13T02:53:50;19.48;;;9.73;;
71423;SDS011;59240;51.370;-0.486;2022-10-13T02:56:17;25.75;;;10.38;;
71423;SDS011;59240;51.370;-0.486;2022-10-13T02:58:44;16.20;;;8.60;;
71423;SDS011;59240;51.370;-0.486;2022-10-13T03:01:12;17.67;;;9.10;;
71423;SDS011;59240;51.370;-0.486;2022-10-13T03:03:41;18.42;;;8.88;;
71423;SDS011;59240;51.370;-0.486;2022-10-13T03:06:08;24.08;;;10.20;;
71423;SDS011;59240;51.370;-0.486;2022-10-13T03:08:35;20.75;;;9.35;;
71423;SDS011;59240;51.370;-0.486;2022-10-13T03:11:01;15.57;;;8.15;;
71423;SDS011;59240;51.370;-0.486;2022-10-13T03:13:28;18.27;;;7.88;;
71423;SDS011;59240;51.370;-0.486;2022-10-13T03:15:54;20.85;;;7.35;;
71423;SDS011;59240;51.370;-0.486;2022-10-13T03:18:21;13.23;;;7.22;;
71423;SDS011;59240;51.370;-0.486;2022-10-13T03:20:58;15.85;;;7.80;;
71423;SDS011;59240;51.370;-0.486;2022-10-13T03:23:26;14.52;;;7.30;;
71423;SDS011;59240;51.370;-0.486;2022-10-13T03:25:53;17.30;;;8.10;;
71423;SDS011;59240;51.370;-0.486;2022-10-13T03:28:20;15.25;;;7.38;;
71423;SDS011;59240;51.370;-0.486;2022-10-13T03:30:47;19.58;;;7.20;;
71423;SDS011;59240;51.370;-0.486;2022-10-13T03:33:33;19.30;;;6.43;;
71423;SDS011;59240;51.370;-0.486;2022-10-13T03:36:03;17.30;;;7.78;;
71423;SDS011;59240;51.370;-0.486;2022-10-13T03:38:31;12.75;;;6.70;;
71423;SDS011;59240;51.370;-0.486;2022-10-13T03:41:03;14.73;;;7.00;;
71423;SDS011;59240;51.370;-0.486;2022-10-13T03:43:30;13.18;;;6.63;;
71423;SDS011;59240;51.370;-0.486;2022-10-13T03:45:57;11.52;;;6.22;;
71423;SDS011;59240;51.370;-0.486;2022-10-13T03:48:25;12.73;;;5.97;;
71423;SDS011;59240;51.370;-0.486;2022-10-13T03:50:53;13.52;;;6.18;;
71423;SDS011;59240;51.370;-0.486;2022-10-13T03:53:20;9.90;;;6.28;;
71423;SDS011;59240;51.370;-0.486;2022-10-13T03:55:51;11.05;;;6.47;;
71423;SDS011;59240;51.370;-0.486;2022-10-13T03:58:20;13.90;;;6.50;;
71423;SDS011;59240;51.370;-0.486;2022-10-13T04:00:49;15.07;;;6.65;;
71423;SDS011;59240;51.370;-0.486;2022-10-13T04:03:16;13.50;;;7.00;;
71423;SDS011;59240;51.370;-0.486;2022-10-13T04:05:43;12.65;;;7.18;;
71423;SDS011;59240;51.370;-0.486;2022-10-13T04:08:10;27.90;;;9.77;;
71423;SDS011;59240;51.370;-0.486;2022-10-13T04:10:37;20.40;;;7.93;;
71423;SDS011;59240;51.370;-0.486;2022-10-13T04:13:05;23.70;;;9.77;;
71423;SDS011;59240;51.370;-0.486;2022-10-13T04:15:35;20.80;;;9.77;;
71423;SDS011;59240;51.370;-0.486;2022-10-13T04:18:03;23.77;;;12.13;;
71423;SDS011;59240;51.370;-0.486;2022-10-13T04:20:34;21.67;;;11.90;;
71423;SDS011;59240;51.370;-0.486;2022-10-13T04:23:02;27.30;;;12.20;;
71423;SDS011;59240;51.370;-0.486;2022-10-13T04:25:28;23.67;;;9.95;;
71423;SDS011;59240;51.370;-0.486;2022-10-13T04:27:55;17.75;;;8.48;;
71423;SDS011;59240;51.370;-0.486;2022-10-13T04:30:22;19.88;;;8.52;;
71423;SDS011;59240;51.370;-0.486;2022-10-13T04:32:48;23.80;;;8.48;;
71423;SDS011;59240;51.370;-0.486;2022-10-13T04:35:15;26.42;;;9.90;;
71423;SDS011;59240;51.370;-0.486;2022-10-13T04:37:41;28.73;;;10.45;;
71423;SDS011;59240;51.370;-0.486;2022-10-13T04:40:10;20.77;;;9.93;;
71423;SDS011;59240;51.370;-0.486;2022-10-13T04:42:37;21.83;;;10.10;;
71423;SDS011;59240;51.370;-0.486;2022-10-13T04:45:04;24.65;;;9.65;;
71423;SDS011;59240;51.370;-0.486;2022-10-13T04:47:32;16.60;;;8.57;;
71423;SDS011;59240;51.370;-0.486;2022-10-13T04:50:02;30.65;;;10.68;;
71423;SDS011;59240;51.370;-0.486;2022-10-13T04:52:29;25.73;;;11.38;;
71423;SDS011;59240;51.370;-0.486;2022-10-13T04:54:56;30.55;;;11.70;;
71423;SDS011;59240;51.370;-0.486;2022-10-13T04:57:22;22.70;;;11.15;;
71423;SDS011;59240;51.370;-0.486;2022-10-13T04:59:49;22.08;;;11.00;;
71423;SDS011;59240;51.370;-0.486;2022-10-13T05:02:15;24.60;;;12.40;;
71423;SDS011;59240;51.370;-0.486;2022-10-13T05:04:43;38.42;;;13.18;;
71423;SDS011;59240;51.370;-0.486;2022-10-13T05:07:09;39.72;;;13.38;;
71423;SDS011;59240;51.370;-0.486;2022-10-13T05:09:43;29.40;;;13.35;;
71423;SDS011;59240;51.370;-0.486;2022-10-13T05:12:10;26.98;;;12.15;;
71423;SDS011;59240;51.370;-0.486;2022-10-13T05:14:37;29.52;;;12.95;;
71423;SDS011;59240;51.370;-0.486;2022-10-13T05:17:03;33.70;;;14.00;;
71423;SDS011;59240;51.370;-0.486;2022-10-13T05:19:31;33.03;;;13.55;;
71423;SDS011;59240;51.370;-0.486;2022-10-13T05:21:58;41.85;;;14.07;;
71423;SDS011;59240;51.370;-0.486;2022-10-13T05:24:24;32.08;;;12.88;;
71423;SDS011;59240;51.370;-0.486;2022-10-13T05:27:05;28.88;;;12.85;;
71423;SDS011;59240;51.370;-0.486;2022-10-13T05:29:34;39.90;;;14.20;;
71423;SDS011;59240;51.370;-0.486;2022-10-13T05:32:02;26.95;;;11.93;;
71423;SDS011;59240;51.370;-0.486;2022-10-13T05:34:29;28.55;;;11.52;;
71423;SDS011;59240;51.370;-0.486;2022-10-13T05:36:55;27.73;;;12.23;;
71423;SDS011;59240;51.370;-0.486;2022-10-13T05:39:22;25.70;;;11.73;;
71423;SDS011;59240;51.370;-0.486;2022-10-13T05:41:49;32.03;;;12.43;;
71423;SDS011;59240;51.370;-0.486;2022-10-13T05:44:15;36.65;;;12.73;;
71423;SDS011;59240;51.370;-0.486;2022-10-13T05:46:43;33.22;;;12.07;;
71423;SDS011;59240;51.370;-0.486;2022-10-13T05:49:09;30.15;;;11.90;;
71423;SDS011;59240;51.370;-0.486;2022-10-13T05:51:40;22.25;;;12.07;;
71423;SDS011;59240;51.370;-0.486;2022-10-13T05:56:41;24.17;;;10.95;;
71423;SDS011;59240;51.370;-0.486;2022-10-13T05:59:12;27.13;;;12.27;;
71423;SDS011;59240;51.370;-0.486;2022-10-13T06:01:41;32.22;;;12.60;;
71423;SDS011;59240;51.370;-0.486;2022-10-13T06:04:10;32.72;;;12.70;;
71423;SDS011;59240;51.370;-0.486;2022-10-13T06:06:42;27.08;;;11.73;;
71423;SDS011;59240;51.370;-0.486;2022-10-13T06:09:11;19.75;;;11.23;;
71423;SDS011;59240;51.370;-0.486;2022-10-13T06:11:38;24.08;;;12.70;;
71423;SDS011;59240;51.370;-0.486;2022-10-13T06:14:05;26.58;;;11.88;;
71423;SDS011;59240;51.370;-0.486;2022-10-13T06:16:33;26.15;;;11.95;;
71423;SDS011;59240;51.370;-0.486;2022-10-13T06:19:02;25.92;;;11.57;;
71423;SDS011;59240;51.370;-0.486;2022-10-13T06:21:29;25.63;;;11.40;;
71423;SDS011;59240;51.370;-0.486;2022-10-13T06:23:56;28.85;;;11.98;;
71423;SDS011;59240;51.370;-0.486;2022-10-13T06:26:22;40.05;;;12.90;;
71423;SDS011;59240;51.370;-0.486;2022-10-13T06:28:49;38.25;;;11.48;;
71423;SDS011;59240;51.370;-0.486;2022-10-13T06:31:22;28.17;;;11.25;;
71423;SDS011;59240;51.370;-0.486;2022-10-13T06:33:48;29.27;;;11.02;;
71423;SDS011;59240;51.370;-0.486;2022-10-13T06:36:15;27.60;;;10.70;;
71423;SDS011;59240;51.370;-0.486;2022-10-13T06:38:41;24.40;;;10.90;;
71423;SDS011;59240;51.370;-0.486;2022-10-13T06:41:08;27.48;;;11.95;;
71423;SDS011;59240;51.370;-0.486;2022-10-13T06:43:35;29.77;;;12.38;;
71423;SDS011;59240;51.370;-0.486;2022-10-13T06:46:05;28.80;;;12.40;;
71423;SDS011;59240;51.370;-0.486;2022-10-13T06:48:32;27.02;;;12.88;;
71423;SDS011;59240;51.370;-0.486;2022-10-13T06:51:00;29.15;;;11.55;;
71423;SDS011;59240;51.370;-0.486;2022-10-13T06:53:28;30.27;;;11.90;;
71423;SDS011;59240;51.370;-0.486;2022-10-13T06:55:56;69.68;;;15.02;;
71423;SDS011;59240;51.370;-0.486;2022-10-13T06:58:24;101.15;;;16.48;;
71423;SDS011;59240;51.370;-0.486;2022-10-13T07:00:50;48.30;;;14.32;;
71423;SDS011;59240;51.370;-0.486;2022-10-13T07:03:17;96.53;;;17.90;;
71423;SDS011;59240;51.370;-0.486;2022-10-13T07:05:44;169.00;;;17.33;;
71423;SDS011;59240;51.370;-0.486;2022-10-13T07:08:11;118.22;;;17.50;;
71423;SDS011;59240;51.370;-0.486;2022-10-13T07:10:39;66.63;;;17.20;;
71423;SDS011;59240;51.370;-0.486;2022-10-13T07:13:06;70.47;;;17.02;;
71423;SDS011;59240;51.370;-0.486;2022-10-13T07:15:35;98.25;;;19.38;;
71423;SDS011;59240;51.370;-0.486;2022-10-13T07:18:04;115.05;;;20.50;;
71423;SDS011;59240;51.370;-0.486;2022-10-13T07:20:33;178.48;;;22.80;;
71423;SDS011;59240;51.370;-0.486;2022-10-13T07:22:59;112.57;;;19.88;;
71423;SDS011;59240;51.370;-0.486;2022-10-13T07:25:26;121.03;;;18.35;;
71423;SDS011;59240;51.370;-0.486;2022-10-13T07:27:53;158.57;;;21.60;;
71423;SDS011;59240;51.370;-0.486;2022-10-13T07:30:20;181.52;;;22.67;;
71423;SDS011;59240;51.370;-0.486;2022-10-13T07:32:47;133.38;;;23.85;;
71423;SDS011;59240;51.370;-0.486;2022-10-13T07:35:14;101.82;;;20.95;;
71423;SDS011;59240;51.370;-0.486;2022-10-13T07:37:40;72.40;;;21.63;;
71423;SDS011;59240;51.370;-0.486;2022-10-13T07:40:07;57.60;;;20.60;;
71423;SDS011;59240;51.370;-0.486;2022-10-13T07:42:34;54.55;;;19.40;;
71423;SDS011;59240;51.370;-0.486;2022-10-13T07:45:01;39.67;;;16.98;;
71423;SDS011;59240;51.370;-0.486;2022-10-13T07:47:28;28.65;;;14.57;;
71423;SDS011;59240;51.370;-0.486;2022-10-13T07:49:54;31.75;;;16.02;;
71423;SDS011;59240;51.370;-0.486;2022-10-13T07:52:21;31.75;;;16.40;;
71423;SDS011;59240;51.370;-0.486;2022-10-13T07:54:48;35.05;;;16.95;;
71423;SDS011;59240;51.370;-0.486;2022-10-13T07:57:16;29.70;;;14.82;;
71423;SDS011;59240;51.370;-0.486;2022-10-13T07:59:43;32.38;;;15.75;;
71423;SDS011;59240;51.370;-0.486;2022-10-13T08:02:09;29.60;;;14.55;;
71423;SDS011;59240;51.370;-0.486;2022-10-13T08:04:36;33.13;;;14.73;;
71423;SDS011;59240;51.370;-0.486;2022-10-13T08:07:04;28.70;;;13.90;;
71423;SDS011;59240;51.370;-0.486;2022-10-13T08:09:31;25.48;;;12.73;;
71423;SDS011;59240;51.370;-0.486;2022-10-13T08:11:59;25.65;;;13.00;;
71423;SDS011;59240;51.370;-0.486;2022-10-13T08:14:27;19.95;;;12.25;;
71423;SDS011;59240;51.370;-0.486;2022-10-13T08:16:55;23.50;;;13.77;;
71423;SDS011;59240;51.370;-0.486;2022-10-13T08:19:23;18.15;;;12.20;;
71423;SDS011;59240;51.370;-0.486;2022-10-13T08:21:51;19.52;;;12.50;;
71423;SDS011;59240;51.370;-0.486;2022-10-13T08:24:24;26.25;;;13.57;;
71423;SDS011;59240;51.370;-0.486;2022-10-13T08:26:51;27.52;;;13.20;;
71423;SDS011;59240;51.370;-0.486;2022-10-13T08:29:18;21.98;;;13.60;;
71423;SDS011;59240;51.370;-0.486;2022-10-13T08:31:48;20.60;;;14.60;;
71423;SDS011;59240;51.370;-0.486;2022-10-13T08:34:15;27.52;;;15.70;;
71423;SDS011;59240;51.370;-0.486;2022-10-13T08:36:41;37.97;;;17.45;;
71423;SDS011;59240;51.370;-0.486;2022-10-13T08:39:09;24.85;;;15.25;;
71423;SDS011;59240;51.370;-0.486;2022-10-13T08:41:40;20.83;;;13.85;;
71423;SDS011;59240;51.370;-0.486;2022-10-13T08:47:45;17.33;;;12.05;;
71423;SDS011;59240;51.370;-0.486;2022-10-13T08:50:18;19.83;;;13.75;;
71423;SDS011;59240;51.370;-0.486;2022-10-13T08:52:57;20.35;;;14.48;;
71423;SDS011;59240;51.370;-0.486;2022-10-13T08:55:36;16.98;;;14.13;;
71423;SDS011;59240;51.370;-0.486;2022-10-13T08:58:22;25.02;;;16.95;;
71423;SDS011;59240;51.370;-0.486;2022-10-13T09:03:37;21.50;;;14.30;;
71423;SDS011;59240;51.370;-0.486;2022-10-13T09:08:58;20.48;;;14.00;;
71423;SDS011;59240;51.370;-0.486;2022-10-13T09:11:46;19.92;;;13.15;;
71423;SDS011;59240;51.370;-0.486;2022-10-13T09:14:27;16.08;;;11.65;;
71423;SDS011;59240;51.370;-0.486;2022-10-13T09:17:11;11.55;;;9.20;;
71423;SDS011;59240;51.370;-0.486;2022-10-13T09:19:41;14.77;;;10.32;;
71423;SDS011;59240;51.370;-0.486;2022-10-13T09:22:26;15.20;;;10.27;;
71423;SDS011;59240;51.370;-0.486;2022-10-13T09:33:13;15.27;;;10.73;;
71423;SDS011;59240;51.370;-0.486;2022-10-13T09:35:39;15.75;;;8.50;;
71423;SDS011;59240;51.370;-0.486;2022-10-13T09:38:12;12.18;;;7.07;;
71423;SDS011;59240;51.370;-0.486;2022-10-13T09:41:05;14.35;;;8.50;;
71423;SDS011;59240;51.370;-0.486;2022-10-13T09:46:30;14.40;;;8.60;;
71423;SDS011;59240;51.370;-0.486;2022-10-13T09:49:34;12.35;;;8.30;;
71423;SDS011;59240;51.370;-0.486;2022-10-13T09:52:02;12.30;;;8.73;;
71423;SDS011;59240;51.370;-0.486;2022-10-13T09:57:10;9.35;;;5.85;;
71423;SDS011;59240;51.370;-0.486;2022-10-13T09:59:40;9.20;;;5.85;;
71423;SDS011;59240;51.370;-0.486;2022-10-13T10:05:22;7.45;;;5.68;;
71423;SDS011;59240;51.370;-0.486;2022-10-13T10:07:56;11.55;;;5.78;;
71423;SDS011;59240;51.370;-0.486;2022-10-13T10:10:33;8.57;;;5.10;;
71423;SDS011;59240;51.370;-0.486;2022-10-13T10:13:01;7.22;;;4.57;;
71423;SDS011;59240;51.370;-0.486;2022-10-13T10:18:09;8.77;;;5.50;;
71423;SDS011;59240;51.370;-0.486;2022-10-13T10:34:41;12.85;;;7.43;;
71423;SDS011;59240;51.370;-0.486;2022-10-13T10:37:32;11.30;;;8.05;;
71423;SDS011;59240;51.370;-0.486;2022-10-13T10:45:38;16.63;;;11.30;;
71423;SDS011;59240;51.370;-0.486;2022-10-13T10:50:37;20.38;;;14.32;;
71423;SDS011;59240;51.370;-0.486;2022-10-13T10:53:05;22.30;;;15.80;;
71423;SDS011;59240;51.370;-0.486;2022-10-13T10:55:42;18.23;;;14.75;;
71423;SDS011;59240;51.370;-0.486;2022-10-13T10:58:26;22.17;;;15.45;;
71423;SDS011;59240;51.370;-0.486;2022-10-13T11:00:58;20.15;;;15.23;;
71423;SDS011;59240;51.370;-0.486;2022-10-13T11:08:43;23.63;;;15.88;;
71423;SDS011;59240;51.370;-0.486;2022-10-13T11:19:27;22.55;;;16.30;;
71423;SDS011;59240;51.370;-0.486;2022-10-13T11:32:45;24.95;;;16.27;;
71423;SDS011;59240;51.370;-0.486;2022-10-13T11:46:16;18.13;;;13.38;;
71423;SDS011;59240;51.370;-0.486;2022-10-13T11:49:10;17.48;;;12.75;;
71423;SDS011;59240;51.370;-0.486;2022-10-13T11:57:18;20.45;;;15.27;;
71423;SDS011;59240;51.370;-0.486;2022-10-13T11:59:46;14.75;;;10.75;;
71423;SDS011;59240;51.370;-0.486;2022-10-13T12:02:15;16.80;;;12.80;;
71423;SDS011;59240;51.370;-0.486;2022-10-13T12:04:57;14.52;;;11.93;;
71423;SDS011;59240;51.370;-0.486;2022-10-13T12:07:43;15.23;;;8.60;;
71423;SDS011;59240;51.370;-0.486;2022-10-13T12:10:17;15.40;;;10.30;;
71423;SDS011;59240;51.370;-0.486;2022-10-13T12:12:49;14.57;;;10.00;;
71423;SDS011;59240;51.370;-0.486;2022-10-13T12:15:54;17.48;;;10.43;;
71423;SDS011;59240;51.370;-0.486;2022-10-13T12:18:20;13.65;;;9.32;;
71423;SDS011;59240;51.370;-0.486;2022-10-13T12:20:50;13.98;;;8.98;;
71423;SDS011;59240;51.370;-0.486;2022-10-13T12:23:18;13.02;;;8.15;;
71423;SDS011;59240;51.370;-0.486;2022-10-13T12:25:46;13.45;;;8.80;;
71423;SDS011;59240;51.370;-0.486;2022-10-13T12:28:17;11.50;;;7.93;;
71423;SDS011;59240;51.370;-0.486;2022-10-13T12:30:55;7.43;;;5.57;;
71423;SDS011;59240;51.370;-0.486;2022-10-13T12:33:31;13.15;;;7.78;;
71423;SDS011;59240;51.370;-0.486;2022-10-13T12:38:37;9.97;;;7.50;;
71423;SDS011;59240;51.370;-0.486;2022-10-13T12:41:07;11.80;;;6.75;;
71423;SDS011;59240;51.370;-0.486;2022-10-13T12:43:35;9.73;;;6.35;;
71423;SDS011;59240;51.370;-0.486;2022-10-13T12:46:03;9.57;;;6.05;;
71423;SDS011;59240;51.370;-0.486;2022-10-13T12:48:33;9.13;;;6.47;;
71423;SDS011;59240;51.370;-0.486;2022-10-13T12:51:13;8.52;;;6.43;;
71423;SDS011;59240;51.370;-0.486;2022-10-13T12:53:42;9.13;;;5.68;;
71423;SDS011;59240;51.370;-0.486;2022-10-13T12:56:30;8.73;;;4.03;;
71423;SDS011;59240;51.370;-0.486;2022-10-13T12:58:58;10.82;;;5.72;;
71423;SDS011;59240;51.370;-0.486;2022-10-13T13:03:53;6.93;;;4.85;;
71423;SDS011;59240;51.370;-0.486;2022-10-13T13:06:29;7.90;;;4.40;;
71423;SDS011;59240;51.370;-0.486;2022-10-13T13:11:45;7.47;;;5.45;;
71423;SDS011;59240;51.370;-0.486;2022-10-13T13:17:10;7.43;;;5.28;;
71423;SDS011;59240;51.370;-0.486;2022-10-13T13:20:27;10.13;;;6.68;;
71423;SDS011;59240;51.370;-0.486;2022-10-13T13:22:56;12.05;;;7.78;;
71423;SDS011;59240;51.370;-0.486;2022-10-13T13:25:23;11.32;;;6.90;;
71423;SDS011;59240;51.370;-0.486;2022-10-13T13:27:50;11.48;;;6.25;;
71423;SDS011;59240;51.370;-0.486;2022-10-13T13:30:19;11.73;;;6.05;;
71423;SDS011;59240;51.370;-0.486;2022-10-13T13:32:47;9.25;;;6.53;;
71423;SDS011;59240;51.370;-0.486;2022-10-13T13:35:13;10.23;;;6.07;;
71423;SDS011;59240;51.370;-0.486;2022-10-13T13:37:41;11.82;;;6.93;;
71423;SDS011;59240;51.370;-0.486;2022-10-13T13:40:14;11.05;;;6.40;;
71423;SDS011;59240;51.370;-0.486;2022-10-13T13:42:42;9.02;;;6.47;;
71423;SDS011;59240;51.370;-0.486;2022-10-13T13:45:12;8.52;;;6.40;;
71423;SDS011;59240;51.370;-0.486;2022-10-13T13:47:39;11.35;;;6.20;;
71423;SDS011;59240;51.370;-0.486;2022-10-13T13:50:26;11.23;;;6.57;;
71423;SDS011;59240;51.370;-0.486;2022-10-13T13:52:58;9.57;;;6.47;;
71423;SDS011;59240;51.370;-0.486;2022-10-13T13:55:26;10.93;;;6.30;;
71423;SDS011;59240;51.370;-0.486;2022-10-13T13:57:54;8.82;;;6.63;;
71423;SDS011;59240;51.370;-0.486;2022-10-13T14:00:22;10.20;;;6.43;;
71423;SDS011;59240;51.370;-0.486;2022-10-13T14:02:49;9.57;;;6.32;;
71423;SDS011;59240;51.370;-0.486;2022-10-13T14:05:16;8.35;;;5.35;;
71423;SDS011;59240;51.370;-0.486;2022-10-13T14:07:42;8.00;;;4.38;;
71423;SDS011;59240;51.370;-0.486;2022-10-13T14:10:09;6.75;;;3.33;;
71423;SDS011;59240;51.370;-0.486;2022-10-13T14:12:36;6.63;;;3.20;;
71423;SDS011;59240;51.370;-0.486;2022-10-13T14:15:03;7.15;;;3.40;;
71423;SDS011;59240;51.370;-0.486;2022-10-13T14:17:30;6.25;;;3.28;;
71423;SDS011;59240;51.370;-0.486;2022-10-13T14:19:57;7.00;;;3.50;;
71423;SDS011;59240;51.370;-0.486;2022-10-13T14:22:23;8.55;;;3.72;;
71423;SDS011;59240;51.370;-0.486;2022-10-13T14:24:50;8.07;;;3.85;;
71423;SDS011;59240;51.370;-0.486;2022-10-13T14:27:17;6.30;;;2.90;;
71423;SDS011;59240;51.370;-0.486;2022-10-13T14:29:44;7.82;;;3.33;;
71423;SDS011;59240;51.370;-0.486;2022-10-13T14:32:10;6.35;;;3.08;;
71423;SDS011;59240;51.370;-0.486;2022-10-13T14:34:37;7.05;;;3.30;;
71423;SDS011;59240;51.370;-0.486;2022-10-13T14:37:03;4.70;;;2.80;;
71423;SDS011;59240;51.370;-0.486;2022-10-13T14:39:30;8.88;;;3.25;;
71423;SDS011;59240;51.370;-0.486;2022-10-13T14:41:57;7.75;;;3.22;;
71423;SDS011;59240;51.370;-0.486;2022-10-13T14:44:23;7.28;;;3.00;;
71423;SDS011;59240;51.370;-0.486;2022-10-13T14:46:50;7.15;;;3.33;;
71423;SDS011;59240;51.370;-0.486;2022-10-13T14:49:16;5.75;;;3.85;;
71423;SDS011;59240;51.370;-0.486;2022-10-13T14:51:43;5.63;;;3.47;;
71423;SDS011;59240;51.370;-0.486;2022-10-13T14:54:09;7.32;;;3.60;;
71423;SDS011;59240;51.370;-0.486;2022-10-13T14:56:36;8.43;;;3.20;;
71423;SDS011;59240;51.370;-0.486;2022-10-13T14:59:04;5.75;;;3.42;;
71423;SDS011;59240;51.370;-0.486;2022-10-13T15:01:31;7.80;;;3.65;;
71423;SDS011;59240;51.370;-0.486;2022-10-13T15:03:59;4.82;;;3.05;;
71423;SDS011;59240;51.370;-0.486;2022-10-13T15:06:26;7.43;;;3.08;;
71423;SDS011;59240;51.370;-0.486;2022-10-13T15:08:53;4.70;;;2.83;;
71423;SDS011;59240;51.370;-0.486;2022-10-13T15:11:20;7.03;;;3.10;;
71423;SDS011;59240;51.370;-0.486;2022-10-13T15:13:47;8.13;;;3.40;;
71423;SDS011;59240;51.370;-0.486;2022-10-13T15:16:15;5.43;;;3.22;;
71423;SDS011;59240;51.370;-0.486;2022-10-13T15:18:43;8.98;;;3.30;;
71423;SDS011;59240;51.370;-0.486;2022-10-13T15:21:11;6.93;;;3.38;;
71423;SDS011;59240;51.370;-0.486;2022-10-13T15:23:38;9.55;;;3.75;;
71423;SDS011;59240;51.370;-0.486;2022-10-13T15:26:05;8.88;;;4.10;;
71423;SDS011;59240;51.370;-0.486;2022-10-13T15:28:37;8.13;;;4.57;;
71423;SDS011;59240;51.370;-0.486;2022-10-13T15:31:05;8.68;;;4.40;;
71423;SDS011;59240;51.370;-0.486;2022-10-13T15:33:32;7.40;;;4.15;;
71423;SDS011;59240;51.370;-0.486;2022-10-13T15:35:59;8.30;;;4.25;;
71423;SDS011;59240;51.370;-0.486;2022-10-13T15:38:25;9.48;;;4.43;;
71423;SDS011;59240;51.370;-0.486;2022-10-13T15:40:53;7.28;;;4.32;;
71423;SDS011;59240;51.370;-0.486;2022-10-13T15:43:24;6.07;;;3.75;;
71423;SDS011;59240;51.370;-0.486;2022-10-13T15:45:54;9.25;;;4.03;;
71423;SDS011;59240;51.370;-0.486;2022-10-13T15:48:24;13.07;;;4.72;;
71423;SDS011;59240;51.370;-0.486;2022-10-13T15:50:51;7.35;;;4.45;;
71423;SDS011;59240;51.370;-0.486;2022-10-13T15:53:18;9.00;;;4.20;;
71423;SDS011;59240;51.370;-0.486;2022-10-13T15:55:45;6.60;;;4.00;;
71423;SDS011;59240;51.370;-0.486;2022-10-13T15:58:12;7.10;;;4.10;;
71423;SDS011;59240;51.370;-0.486;2022-10-13T16:00:39;7.10;;;3.78;;
71423;SDS011;59240;51.370;-0.486;2022-10-13T16:03:09;10.40;;;4.70;;
71423;SDS011;59240;51.370;-0.486;2022-10-13T16:05:40;7.40;;;4.22;;
71423;SDS011;59240;51.370;-0.486;2022-10-13T16:08:07;11.18;;;4.65;;
71423;SDS011;59240;51.370;-0.486;2022-10-13T16:10:36;9.18;;;4.45;;
71423;SDS011;59240;51.370;-0.486;2022-10-13T16:13:04;8.50;;;5.07;;
71423;SDS011;59240;51.370;-0.486;2022-10-13T16:15:30;10.13;;;4.63;;
71423;SDS011;59240;51.370;-0.486;2022-10-13T16:17:57;8.07;;;4.63;;
71423;SDS011;59240;51.370;-0.486;2022-10-13T16:20:23;9.35;;;4.90;;
71423;SDS011;59240;51.370;-0.486;2022-10-13T16:22:51;8.10;;;5.00;;
71423;SDS011;59240;51.370;-0.486;2022-10-13T16:25:19;12.23;;;4.70;;
71423;SDS011;59240;51.370;-0.486;2022-10-13T16:27:45;5.55;;;4.20;;
71423;SDS011;59240;51.370;-0.486;2022-10-13T16:30:12;7.72;;;4.75;;
71423;SDS011;59240;51.370;-0.486;2022-10-13T16:32:38;10.80;;;4.35;;
71423;SDS011;59240;51.370;-0.486;2022-10-13T16:35:05;9.63;;;4.57;;